Time;durP1;ratioP1;P1;durP2;ratioP2;P2;SDS_P1;SDS_P2;PMS_P1;PMS_P2;Temp;Humidity;BMP_temperature;BMP_pressure;BME280_temperature;BME280_humidity;BME280_pressure;Samples;Min_cycle;Max_cycle;Signal;HPM_P1;HPM_P2
2022/08/10 00:02:05;;;;;;;0.67;0.67;;;;;;;;;;5044818;28;20211;-60
2022/08/10 00:04:53;;;;;;;0.80;0.80;;;;;;;;;;5052332;28;20202;-60
2022/08/10 00:07:40;;;;;;;0.80;0.80;;;;;;;;;;5050654;28;20218;-60
2022/08/10 00:10:27;;;;;;;0.70;0.70;;;;;;;;;;5056503;28;20251;-59
2022/08/10 00:13:14;;;;;;;0.60;0.60;;;;;;;;;;5042454;28;20241;-60
2022/08/10 00:16:01;;;;;;;0.80;0.80;;;;;;;;;;5059302;28;20710;-59
2022/08/10 00:18:48;;;;;;;0.87;0.87;;;;;;;;;;5046213;28;20303;-60
2022/08/10 00:21:36;;;;;;;0.80;0.80;;;;;;;;;;5057742;28;20267;-59
2022/08/10 00:24:23;;;;;;;0.70;0.70;;;;;;;;;;5053415;28;20242;-59
2022/08/10 00:27:10;;;;;;;0.70;0.70;;;;;;;;;;5060946;28;20400;-60
2022/08/10 00:29:57;;;;;;;0.50;0.50;;;;;;;;;;5042195;28;20210;-59
2022/08/10 00:32:44;;;;;;;0.50;0.50;;;;;;;;;;5059548;28;20670;-60
2022/08/10 00:35:31;;;;;;;0.60;0.60;;;;;;;;;;5048697;28;20217;-60
2022/08/10 00:38:20;;;;;;;0.60;0.60;;;;;;;;;;5048202;28;20208;-60
2022/08/10 00:41:07;;;;;;;0.80;0.80;;;;;;;;;;5048377;28;20632;-60
2022/08/10 00:43:54;;;;;;;0.70;0.70;;;;;;;;;;5058822;28;20208;-59
2022/08/10 00:46:41;;;;;;;0.80;0.80;;;;;;;;;;5053749;28;20217;-60
2022/08/10 00:49:28;;;;;;;0.73;0.73;;;;;;;;;;5055410;28;20207;-60
2022/08/10 00:52:17;;;;;;;0.80;0.80;;;;;;;;;;5045680;28;20213;-60
2022/08/10 00:55:06;;;;;;;1.23;0.60;;;;;;;;;;5055501;28;20228;-60
2022/08/10 00:57:55;;;;;;;0.70;0.70;;;;;;;;;;5051181;28;20291;-60
2022/08/10 01:00:42;;;;;;;0.87;0.57;;;;;;;;;;5052469;28;20424;-63
2022/08/10 01:03:29;;;;;;;0.70;0.70;;;;;;;;;;5053358;28;20210;-63
2022/08/10 01:06:24;;;;;;;0.80;0.80;;;;;;;;;;5062706;28;20712;-63
2022/08/10 01:09:17;;;;;;;0.80;0.80;;;;;;;;;;5055674;28;20350;-63
2022/08/10 01:12:14;;;;;;;0.70;0.70;;;;;;;;;;5062722;28;20234;-63
2022/08/10 01:15:06;;;;;;;0.70;0.70;;;;;;;;;;5057530;28;20289;-63
2022/08/10 01:18:00;;;;;;;0.80;0.80;;;;;;;;;;5051197;28;20244;-63
2022/08/10 01:21:01;;;;;;;0.80;0.80;;;;;;;;;;5062481;28;20210;-63
2022/08/10 01:24:05;;;;;;;0.77;0.77;;;;;;;;;;5044931;28;20210;-63
2022/08/10 01:27:12;;;;;;;0.60;0.60;;;;;;;;;;5062554;28;20262;-63
2022/08/10 01:30:07;;;;;;;0.83;0.83;;;;;;;;;;5042518;28;20769;-63
2022/08/10 01:33:05;;;;;;;0.80;0.80;;;;;;;;;;5056003;28;20227;-63
2022/08/10 01:35:55;;;;;;;0.63;0.63;;;;;;;;;;5056236;28;20487;-64
2022/08/10 01:38:45;;;;;;;1.03;0.67;;;;;;;;;;5050529;28;20209;-63
2022/08/10 01:41:39;;;;;;;0.63;0.63;;;;;;;;;;5054778;28;20209;-63
2022/08/10 01:44:32;;;;;;;0.70;0.70;;;;;;;;;;5060419;28;20583;-63
2022/08/10 01:50:33;;;;;;;0.63;0.63;;;;;;;;;;5045688;28;20296;-63
2022/08/10 01:53:24;;;;;;;0.60;0.60;;;;;;;;;;5056430;28;20221;-63
2022/08/10 01:56:14;;;;;;;0.80;0.80;;;;;;;;;;5054616;28;20204;-63
2022/08/10 01:59:04;;;;;;;0.70;0.70;;;;;;;;;;5059295;28;20207;-63
2022/08/10 02:01:55;;;;;;;0.90;0.90;;;;;;;;;;5054931;28;20674;-64
2022/08/10 02:04:47;;;;;;;0.53;0.53;;;;;;;;;;5060903;28;20207;-63
2022/08/10 02:07:36;;;;;;;0.70;0.70;;;;;;;;;;5045256;28;20234;-63
2022/08/10 02:10:25;;;;;;;0.80;0.80;;;;;;;;;;5064059;28;20206;-63
2022/08/10 02:13:13;;;;;;;0.70;0.70;;;;;;;;;;5056502;28;20280;-63
2022/08/10 02:16:02;;;;;;;0.87;0.87;;;;;;;;;;5063801;28;20210;-63
2022/08/10 02:18:51;;;;;;;0.70;0.70;;;;;;;;;;5053776;28;20690;-63
2022/08/10 02:21:40;;;;;;;0.67;0.67;;;;;;;;;;5051189;28;20211;-63
2022/08/10 02:24:28;;;;;;;0.60;0.60;;;;;;;;;;5050372;28;20692;-63
2022/08/10 02:27:18;;;;;;;0.70;0.70;;;;;;;;;;5055862;28;20340;-63
2022/08/10 02:30:07;;;;;;;1.03;0.97;;;;;;;;;;5049234;28;20202;-63
2022/08/10 02:32:55;;;;;;;0.70;0.70;;;;;;;;;;5050688;28;20722;-63
2022/08/10 02:35:43;;;;;;;0.70;0.70;;;;;;;;;;5058343;28;20289;-63
2022/08/10 02:38:36;;;;;;;0.70;0.70;;;;;;;;;;5059118;28;20251;-64
2022/08/10 02:41:28;;;;;;;0.60;0.60;;;;;;;;;;5056898;28;20236;-64
2022/08/10 02:44:26;;;;;;;0.80;0.80;;;;;;;;;;5059052;28;20210;-63
2022/08/10 02:47:17;;;;;;;0.60;0.60;;;;;;;;;;5053767;28;20830;-63
2022/08/10 02:50:12;;;;;;;0.77;0.77;;;;;;;;;;5057325;28;20583;-64
2022/08/10 02:53:03;;;;;;;0.80;0.80;;;;;;;;;;5058398;28;20299;-63
2022/08/10 02:55:57;;;;;;;0.80;0.80;;;;;;;;;;5038424;28;20209;-63
2022/08/10 02:58:47;;;;;;;0.67;0.67;;;;;;;;;;5060377;28;20259;-65
2022/08/10 03:01:40;;;;;;;0.50;0.50;;;;;;;;;;5049742;28;20222;-63
2022/08/10 03:04:33;;;;;;;0.70;0.70;;;;;;;;;;5059132;28;20222;-63
2022/08/10 03:07:22;;;;;;;0.77;0.77;;;;;;;;;;5045080;28;20214;-63
2022/08/10 03:10:13;;;;;;;0.70;0.70;;;;;;;;;;5059030;28;20778;-63
2022/08/10 03:13:05;;;;;;;0.60;0.60;;;;;;;;;;5040094;28;20218;-63
2022/08/10 03:15:52;;;;;;;0.80;0.80;;;;;;;;;;5052603;28;20244;-63
2022/08/10 03:18:40;;;;;;;0.70;0.70;;;;;;;;;;5051009;28;20318;-63
2022/08/10 03:21:29;;;;;;;0.60;0.60;;;;;;;;;;5060565;28;20299;-63
2022/08/10 03:24:21;;;;;;;0.63;0.63;;;;;;;;;;5047954;28;20207;-63
2022/08/10 03:27:09;;;;;;;0.60;0.60;;;;;;;;;;5053727;28;20284;-63
2022/08/10 03:29:57;;;;;;;0.60;0.60;;;;;;;;;;5054205;28;20217;-63
2022/08/10 03:32:45;;;;;;;1.20;1.10;;;;;;;;;;5054927;28;20566;-63
2022/08/10 03:35:32;;;;;;;0.80;0.80;;;;;;;;;;5046219;28;20222;-63
2022/08/10 03:38:19;;;;;;;0.50;0.50;;;;;;;;;;5051062;28;20235;-64
2022/08/10 03:41:11;;;;;;;0.80;0.80;;;;;;;;;;5057577;28;20320;-63
2022/08/10 03:44:00;;;;;;;0.70;0.70;;;;;;;;;;5056796;28;20202;-63
2022/08/10 03:46:50;;;;;;;1.00;1.00;;;;;;;;;;5059554;28;20202;-63
2022/08/10 03:49:39;;;;;;;0.57;0.57;;;;;;;;;;5057897;28;20295;-64
2022/08/10 03:52:27;;;;;;;0.60;0.60;;;;;;;;;;5056668;28;20667;-63
2022/08/10 03:55:15;;;;;;;0.67;0.67;;;;;;;;;;5043483;28;20241;-63
2022/08/10 03:58:02;;;;;;;0.80;0.80;;;;;;;;;;5056876;28;20225;-64
2022/08/10 04:00:51;;;;;;;0.60;0.60;;;;;;;;;;5050093;28;20208;-63
2022/08/10 04:03:39;;;;;;;0.80;0.80;;;;;;;;;;5051518;28;20214;-63
2022/08/10 04:06:27;;;;;;;0.80;0.80;;;;;;;;;;5051109;28;20308;-63
2022/08/10 04:09:15;;;;;;;0.70;0.70;;;;;;;;;;5058455;28;20262;-63
2022/08/10 04:12:03;;;;;;;0.50;0.50;;;;;;;;;;5054151;28;20222;-64
2022/08/10 04:14:50;;;;;;;0.77;0.73;;;;;;;;;;5058880;28;20691;-63
2022/08/10 04:17:37;;;;;;;0.70;0.70;;;;;;;;;;5051327;28;20208;-63
2022/08/10 04:20:30;;;;;;;0.60;0.60;;;;;;;;;;5049939;28;20572;-65
2022/08/10 04:23:22;;;;;;;0.60;0.60;;;;;;;;;;5042828;28;20742;-63
2022/08/10 04:26:10;;;;;;;0.70;0.70;;;;;;;;;;5059901;28;20206;-64
2022/08/10 04:28:57;;;;;;;0.73;0.73;;;;;;;;;;5045836;28;20270;-63
2022/08/10 04:31:46;;;;;;;0.73;0.73;;;;;;;;;;5060324;28;20577;-64
2022/08/10 04:34:35;;;;;;;0.70;0.70;;;;;;;;;;5045216;28;20602;-63
2022/08/10 04:37:24;;;;;;;0.60;0.60;;;;;;;;;;5057280;28;20214;-63
2022/08/10 04:40:12;;;;;;;1.17;1.17;;;;;;;;;;5040695;28;20329;-63
2022/08/10 04:43:01;;;;;;;0.80;0.80;;;;;;;;;;5047428;28;20204;-64
2022/08/10 04:45:48;;;;;;;0.90;0.90;;;;;;;;;;5053496;28;20243;-63
2022/08/10 04:48:35;;;;;;;0.97;0.97;;;;;;;;;;5057010;28;20214;-63
2022/08/10 04:51:22;;;;;;;0.87;0.87;;;;;;;;;;5059805;28;20358;-63
2022/08/10 04:54:10;;;;;;;1.00;1.00;;;;;;;;;;5053411;28;20290;-63
2022/08/10 04:56:57;;;;;;;1.07;1.07;;;;;;;;;;5059690;28;20216;-63
2022/08/10 04:59:44;;;;;;;1.23;1.13;;;;;;;;;;5055078;28;20216;-63
2022/08/10 05:02:31;;;;;;;1.10;1.10;;;;;;;;;;5052589;28;20208;-63
2022/08/10 05:05:18;;;;;;;1.13;1.03;;;;;;;;;;5051352;28;20536;-63
2022/08/10 05:08:05;;;;;;;1.20;1.20;;;;;;;;;;5052081;28;20203;-63
2022/08/10 05:10:54;;;;;;;1.20;1.20;;;;;;;;;;5052703;28;20211;-63
2022/08/10 05:13:41;;;;;;;1.43;1.23;;;;;;;;;;5052354;28;20284;-63
2022/08/10 05:16:28;;;;;;;1.40;1.40;;;;;;;;;;5039982;28;20211;-63
2022/08/10 05:19:15;;;;;;;1.10;1.10;;;;;;;;;;5053979;28;20224;-63
2022/08/10 05:22:03;;;;;;;1.57;1.47;;;;;;;;;;5045392;28;20214;-63
2022/08/10 05:24:50;;;;;;;1.13;1.13;;;;;;;;;;5047798;28;20677;-63
2022/08/10 05:27:39;;;;;;;1.50;1.27;;;;;;;;;;5053074;28;20249;-63
2022/08/10 05:30:26;;;;;;;1.40;1.40;;;;;;;;;;5055645;28;20631;-63
2022/08/10 05:33:13;;;;;;;1.73;1.40;;;;;;;;;;5046874;28;20287;-63
2022/08/10 05:36:01;;;;;;;1.37;1.33;;;;;;;;;;5056331;28;20268;-63
2022/08/10 05:38:49;;;;;;;1.30;1.30;;;;;;;;;;5046644;28;20333;-63
2022/08/10 05:41:37;;;;;;;1.70;1.60;;;;;;;;;;5051084;28;20205;-63
2022/08/10 05:44:26;;;;;;;1.30;1.30;;;;;;;;;;5048810;28;20210;-61
2022/08/10 05:47:13;;;;;;;1.30;1.30;;;;;;;;;;5052688;28;20573;-61
2022/08/10 05:50:00;;;;;;;1.37;1.37;;;;;;;;;;5054747;28;20220;-61
2022/08/10 05:52:47;;;;;;;1.30;1.30;;;;;;;;;;5050431;28;21194;-61
2022/08/10 05:55:34;;;;;;;1.40;1.40;;;;;;;;;;5050034;28;20254;-62
2022/08/10 05:58:21;;;;;;;1.30;1.30;;;;;;;;;;5052003;28;20212;-61
2022/08/10 06:01:12;;;;;;;1.00;1.00;;;;;;;;;;5048048;28;20203;-62
2022/08/10 06:04:01;;;;;;;1.47;1.47;;;;;;;;;;5052738;28;20217;-61
2022/08/10 06:06:51;;;;;;;1.20;1.20;;;;;;;;;;5048598;28;20227;-61
2022/08/10 06:09:40;;;;;;;1.73;1.40;;;;;;;;;;5048068;28;20293;-61
2022/08/10 06:12:28;;;;;;;2.78;1.50;;;;;;;;;;5049906;28;20618;-61
2022/08/10 06:15:17;;;;;;;1.15;1.15;;;;;;;;;;5051377;28;20260;-61
2022/08/10 06:18:05;;;;;;;1.42;1.42;;;;;;;;;;5050895;28;20207;-61
2022/08/10 06:20:54;;;;;;;1.52;1.50;;;;;;;;;;5050248;28;20219;-62
2022/08/10 06:23:42;;;;;;;1.30;1.30;;;;;;;;;;5052551;28;20263;-61
2022/08/10 06:26:29;;;;;;;1.23;1.23;;;;;;;;;;5049282;28;20243;-61
2022/08/10 06:29:19;;;;;;;1.52;1.52;;;;;;;;;;5048682;28;20687;-62
2022/08/10 06:32:08;;;;;;;1.45;1.40;;;;;;;;;;5049834;28;20195;-61
2022/08/10 06:34:58;;;;;;;1.38;1.38;;;;;;;;;;5054587;28;20700;-61
2022/08/10 06:37:48;;;;;;;1.80;1.70;;;;;;;;;;5055613;28;20214;-61
2022/08/10 06:40:39;;;;;;;1.10;1.10;;;;;;;;;;5050424;28;20203;-62
2022/08/10 06:43:28;;;;;;;1.40;1.30;;;;;;;;;;5048848;28;20221;-61
2022/08/10 06:46:17;;;;;;;1.17;1.17;;;;;;;;;;5056767;28;20290;-61
2022/08/10 06:49:07;;;;;;;1.42;1.40;;;;;;;;;;5050635;28;20742;-61
2022/08/10 06:51:57;;;;;;;1.50;1.40;;;;;;;;;;5056974;28;20573;-61
2022/08/10 06:54:44;;;;;;;1.15;1.15;;;;;;;;;;5051051;28;20215;-61
2022/08/10 06:57:34;;;;;;;1.05;1.05;;;;;;;;;;5052067;28;20235;-61
2022/08/10 07:00:21;;;;;;;1.25;1.25;;;;;;;;;;5046247;28;20231;-62
2022/08/10 07:03:11;;;;;;;1.40;1.40;;;;;;;;;;5053096;28;20208;-61
2022/08/10 07:05:59;;;;;;;1.42;1.25;;;;;;;;;;5051079;28;20257;-62
2022/08/10 07:08:50;;;;;;;1.60;1.50;;;;;;;;;;5047900;28;20566;-62
2022/08/10 07:11:39;;;;;;;1.25;1.25;;;;;;;;;;5042930;28;20203;-61
2022/08/10 07:14:27;;;;;;;1.35;1.35;;;;;;;;;;5060471;28;20216;-61
2022/08/10 07:17:17;;;;;;;1.27;1.27;;;;;;;;;;5046887;28;20211;-62
2022/08/10 07:20:07;;;;;;;1.13;1.10;;;;;;;;;;5055637;28;20687;-62
2022/08/10 07:22:56;;;;;;;1.13;1.13;;;;;;;;;;5051734;28;20210;-62
2022/08/10 07:25:47;;;;;;;1.30;1.30;;;;;;;;;;5051021;28;20209;-60
2022/08/10 07:28:35;;;;;;;1.30;1.20;;;;;;;;;;5046759;28;20224;-60
2022/08/10 07:31:22;;;;;;;1.20;1.20;;;;;;;;;;5059679;28;20220;-60
2022/08/10 07:34:11;;;;;;;1.20;1.20;;;;;;;;;;5053847;28;20687;-60
2022/08/10 07:37:01;;;;;;;1.00;1.00;;;;;;;;;;5047199;28;20765;-59
2022/08/10 07:39:50;;;;;;;1.30;1.30;;;;;;;;;;5058321;28;20211;-62
2022/08/10 07:42:40;;;;;;;0.90;0.90;;;;;;;;;;5046512;28;20281;-62
2022/08/10 07:45:31;;;;;;;1.45;1.35;;;;;;;;;;5057898;28;20212;-62
2022/08/10 07:48:24;;;;;;;1.15;1.15;;;;;;;;;;5046618;28;20699;-62
2022/08/10 07:51:12;;;;;;;1.20;1.20;;;;;;;;;;5054693;28;20248;-62
2022/08/10 07:54:04;;;;;;;0.90;0.90;;;;;;;;;;5048855;28;20208;-62
2022/08/10 07:56:55;;;;;;;1.15;1.15;;;;;;;;;;5054823;28;20223;-62
2022/08/10 07:59:46;;;;;;;1.27;1.27;;;;;;;;;;5048604;28;20227;-62
2022/08/10 08:02:36;;;;;;;1.10;1.10;;;;;;;;;;5056781;28;20208;-62
2022/08/10 08:05:26;;;;;;;1.00;1.00;;;;;;;;;;5043846;28;20228;-63
2022/08/10 08:08:14;;;;;;;1.13;1.13;;;;;;;;;;5054277;28;20212;-62
2022/08/10 08:11:03;;;;;;;1.10;1.10;;;;;;;;;;5044915;28;20208;-62
2022/08/10 08:13:52;;;;;;;1.20;1.20;;;;;;;;;;5060667;28;20199;-61
2022/08/10 08:16:44;;;;;;;1.10;1.10;;;;;;;;;;5053789;28;20821;-61
2022/08/10 08:19:32;;;;;;;1.23;1.23;;;;;;;;;;5057549;28;20208;-61
2022/08/10 08:22:20;;;;;;;1.13;1.10;;;;;;;;;;5047540;28;20663;-61
2022/08/10 08:25:08;;;;;;;1.00;1.00;;;;;;;;;;5048160;28;20232;-62
2022/08/10 08:27:56;;;;;;;1.13;1.13;;;;;;;;;;5039266;28;20239;-62
2022/08/10 08:30:45;;;;;;;1.00;1.00;;;;;;;;;;5051827;28;20668;-61
2022/08/10 08:33:35;;;;;;;1.08;1.08;;;;;;;;;;5057171;28;20309;-61
2022/08/10 08:36:23;;;;;;;1.10;1.10;;;;;;;;;;5056889;28;20238;-61
2022/08/10 08:39:11;;;;;;;1.17;1.17;;;;;;;;;;5046066;28;20279;-61
2022/08/10 08:42:11;;;;;;;1.02;1.02;;;;;;;;;;5054411;28;20234;-61
2022/08/10 08:45:07;;;;;;;1.05;1.05;;;;;;;;;;5056650;28;20316;-61
2022/08/10 08:48:25;;;;;;;1.33;1.33;;;;;;;;;;5046827;28;20220;-61
2022/08/10 08:51:23;;;;;;;1.20;1.20;;;;;;;;;;5059079;28;20287;-61
2022/08/10 08:54:18;;;;;;;1.20;1.20;;;;;;;;;;5044485;28;20203;-61
2022/08/10 08:57:15;;;;;;;1.20;1.20;;;;;;;;;;5052753;28;20671;-61
2022/08/10 09:00:12;;;;;;;1.00;1.00;;;;;;;;;;5044897;28;20215;-61
2022/08/10 09:03:21;;;;;;;0.90;0.90;;;;;;;;;;5051860;28;20214;-62
2022/08/10 09:06:32;;;;;;;1.20;1.20;;;;;;;;;;5043247;28;21084;-60
2022/08/10 09:09:51;;;;;;;1.00;1.00;;;;;;;;;;5051090;28;20572;-61
2022/08/10 09:12:51;;;;;;;1.00;1.00;;;;;;;;;;5024666;28;20217;-61
2022/08/10 09:15:47;;;;;;;1.00;0.90;;;;;;;;;;5042007;28;20726;-61
2022/08/10 09:18:44;;;;;;;0.90;0.90;;;;;;;;;;5053123;28;20309;-61
2022/08/10 09:21:43;;;;;;;0.90;0.90;;;;;;;;;;5053455;28;20679;-61
2022/08/10 09:24:36;;;;;;;1.00;1.00;;;;;;;;;;5060278;28;20207;-61
2022/08/10 09:27:29;;;;;;;1.00;1.00;;;;;;;;;;5059853;28;20223;-61
2022/08/10 09:30:30;;;;;;;0.90;0.90;;;;;;;;;;5058311;28;20220;-61
2022/08/10 09:33:24;;;;;;;1.05;1.05;;;;;;;;;;5056696;28;20644;-60
2022/08/10 09:36:22;;;;;;;0.90;0.90;;;;;;;;;;5055456;28;20227;-61
2022/08/10 09:39:19;;;;;;;0.80;0.80;;;;;;;;;;5053598;28;20196;-61
2022/08/10 09:42:13;;;;;;;1.08;1.08;;;;;;;;;;5052735;28;20205;-61
2022/08/10 09:45:08;;;;;;;0.90;0.90;;;;;;;;;;5057056;28;20207;-61
2022/08/10 09:48:02;;;;;;;1.20;1.20;;;;;;;;;;5050799;28;20208;-61
2022/08/10 09:50:57;;;;;;;1.00;1.00;;;;;;;;;;5061319;28;20207;-61
2022/08/10 09:53:55;;;;;;;0.80;0.80;;;;;;;;;;5043271;28;20298;-61
2022/08/10 09:56:49;;;;;;;0.90;0.90;;;;;;;;;;5059780;28;20323;-61
2022/08/10 09:59:45;;;;;;;0.93;0.93;;;;;;;;;;5056561;28;20213;-62
2022/08/10 10:02:42;;;;;;;1.02;0.80;;;;;;;;;;5051663;28;20204;-61
2022/08/10 10:05:37;;;;;;;1.00;0.90;;;;;;;;;;5051060;28;20360;-61
2022/08/10 10:08:32;;;;;;;1.05;0.93;;;;;;;;;;5046819;28;20209;-61
2022/08/10 10:11:24;;;;;;;1.05;1.05;;;;;;;;;;5054146;28;20210;-61
2022/08/10 10:14:23;;;;;;;1.00;1.00;;;;;;;;;;5049464;28;20219;-61
2022/08/10 10:17:18;;;;;;;1.00;1.00;;;;;;;;;;5053426;28;20891;-61
2022/08/10 10:20:10;;;;;;;1.02;0.93;;;;;;;;;;5058542;28;20260;-62
2022/08/10 10:23:07;;;;;;;1.17;1.17;;;;;;;;;;5059802;28;20212;-61
2022/08/10 10:26:01;;;;;;;0.80;0.80;;;;;;;;;;5044883;28;20589;-61
2022/08/10 10:28:59;;;;;;;0.68;0.68;;;;;;;;;;5057057;28;20243;-61
2022/08/10 10:31:57;;;;;;;0.80;0.80;;;;;;;;;;5053864;28;20287;-61
2022/08/10 10:34:50;;;;;;;0.90;0.90;;;;;;;;;;5058790;28;20722;-61
2022/08/10 10:37:38;;;;;;;0.80;0.80;;;;;;;;;;5049448;28;20238;-63
2022/08/10 10:40:29;;;;;;;0.80;0.80;;;;;;;;;;5057227;28;20204;-63
2022/08/10 10:43:29;;;;;;;1.00;1.00;;;;;;;;;;5051536;28;20276;-63
2022/08/10 10:46:29;;;;;;;0.90;0.90;;;;;;;;;;5058071;28;20200;-63
2022/08/10 10:49:29;;;;;;;0.80;0.80;;;;;;;;;;5054307;28;20205;-63
2022/08/10 10:52:29;;;;;;;1.20;1.10;;;;;;;;;;5054216;28;20207;-64
2022/08/10 10:55:23;;;;;;;0.90;0.90;;;;;;;;;;5060626;28;20214;-63
2022/08/10 10:58:18;;;;;;;0.73;0.73;;;;;;;;;;5049449;28;20724;-63
2022/08/10 11:01:13;;;;;;;0.90;0.90;;;;;;;;;;5058887;28;20211;-63
2022/08/10 11:04:11;;;;;;;0.80;0.80;;;;;;;;;;5043289;28;20208;-63
2022/08/10 11:07:09;;;;;;;0.88;0.88;;;;;;;;;;5060417;28;20216;-63
2022/08/10 11:09:59;;;;;;;0.73;0.73;;;;;;;;;;5042914;28;20668;-63
2022/08/10 11:12:53;;;;;;;0.82;0.82;;;;;;;;;;5062108;28;20675;-63
2022/08/10 11:15:49;;;;;;;1.02;1.02;;;;;;;;;;5052943;28;20207;-63
2022/08/10 11:18:56;;;;;;;1.00;1.00;;;;;;;;;;5059852;28;20217;-63
2022/08/10 11:22:03;;;;;;;0.80;0.80;;;;;;;;;;5047004;28;20204;-63
2022/08/10 11:24:56;;;;;;;0.73;0.73;;;;;;;;;;5043185;28;20240;-63
2022/08/10 11:27:49;;;;;;;0.80;0.80;;;;;;;;;;5055705;28;20239;-63
2022/08/10 11:30:50;;;;;;;1.00;1.00;;;;;;;;;;5050917;28;20371;-63
2022/08/10 11:33:41;;;;;;;0.80;0.80;;;;;;;;;;5057414;28;20196;-62
2022/08/10 11:36:34;;;;;;;1.17;0.80;;;;;;;;;;5043971;28;20274;-63
2022/08/10 11:39:31;;;;;;;0.85;0.85;;;;;;;;;;5062215;28;20226;-63
2022/08/10 11:42:30;;;;;;;0.60;0.60;;;;;;;;;;5037332;28;20776;-63
2022/08/10 11:45:21;;;;;;;0.80;0.68;;;;;;;;;;5058357;28;20263;-63
2022/08/10 11:48:12;;;;;;;0.90;0.90;;;;;;;;;;5045891;28;20697;-63
2022/08/10 11:51:03;;;;;;;0.70;0.70;;;;;;;;;;5057708;28;20196;-63
2022/08/10 11:53:57;;;;;;;0.80;0.80;;;;;;;;;;5048162;28;20203;-63
2022/08/10 11:56:48;;;;;;;0.80;0.80;;;;;;;;;;5045876;28;20623;-63
2022/08/10 12:02:45;;;;;;;0.70;0.70;;;;;;;;;;5043867;28;20210;-63
2022/08/10 12:05:37;;;;;;;0.80;0.80;;;;;;;;;;5057412;28;20603;-71
2022/08/10 12:08:26;;;;;;;0.77;0.77;;;;;;;;;;5047667;28;20369;-63
2022/08/10 12:11:22;;;;;;;0.70;0.70;;;;;;;;;;5051404;28;20304;-63
2022/08/10 12:14:15;;;;;;;0.80;0.80;;;;;;;;;;5042892;28;20206;-63
2022/08/10 12:17:07;;;;;;;0.60;0.60;;;;;;;;;;5046685;28;20258;-63
2022/08/10 12:20:02;;;;;;;2.15;1.20;;;;;;;;;;5047565;28;20295;-62
2022/08/10 12:22:55;;;;;;;1.00;1.00;;;;;;;;;;5050891;28;20212;-63
2022/08/10 12:25:51;;;;;;;0.70;0.70;;;;;;;;;;5045349;28;20221;-63
2022/08/10 12:28:43;;;;;;;0.70;0.70;;;;;;;;;;5057109;28;20239;-63
2022/08/10 12:31:39;;;;;;;0.73;0.73;;;;;;;;;;5040618;28;20214;-63
2022/08/10 12:34:30;;;;;;;0.80;0.80;;;;;;;;;;5048944;28;20348;-63
2022/08/10 12:37:22;;;;;;;0.80;0.80;;;;;;;;;;5044105;28;20377;-63
2022/08/10 12:40:15;;;;;;;0.80;0.80;;;;;;;;;;5051668;28;20243;-63
2022/08/10 12:43:07;;;;;;;0.80;0.80;;;;;;;;;;5049770;28;20675;-61
2022/08/10 12:46:01;;;;;;;0.80;0.80;;;;;;;;;;5049927;28;20215;-64
2022/08/10 12:48:56;;;;;;;1.00;1.00;;;;;;;;;;5053426;28;20286;-63
2022/08/10 12:51:50;;;;;;;0.80;0.80;;;;;;;;;;5055424;28;20219;-63
2022/08/10 12:54:37;;;;;;;0.90;0.90;;;;;;;;;;5056477;28;20676;-65
2022/08/10 12:57:26;;;;;;;0.85;0.73;;;;;;;;;;5047556;28;20217;-63
2022/08/10 13:00:14;;;;;;;0.90;0.90;;;;;;;;;;5050659;28;20207;-63
2022/08/10 13:03:04;;;;;;;0.70;0.70;;;;;;;;;;5051399;28;20237;-63
2022/08/10 13:05:53;;;;;;;0.65;0.65;;;;;;;;;;5051061;28;20360;-63
2022/08/10 13:11:49;;;;;;;0.70;0.70;;;;;;;;;;5057097;28;20211;-63
2022/08/10 13:14:41;;;;;;;0.88;0.88;;;;;;;;;;5050463;28;20332;-63
2022/08/10 13:17:32;;;;;;;0.80;0.80;;;;;;;;;;5052553;28;20399;-64
2022/08/10 13:20:22;;;;;;;0.90;0.90;;;;;;;;;;5055714;28;20209;-63
2022/08/10 13:23:14;;;;;;;0.80;0.80;;;;;;;;;;5062904;28;20200;-63
2022/08/10 13:26:02;;;;;;;0.60;0.60;;;;;;;;;;5060386;28;20215;-63
2022/08/10 13:28:54;;;;;;;0.50;0.50;;;;;;;;;;5057782;28;20345;-63
2022/08/10 13:31:43;;;;;;;0.77;0.77;;;;;;;;;;5053605;28;20779;-63
2022/08/10 13:34:32;;;;;;;0.80;0.80;;;;;;;;;;5059812;28;20204;-61
2022/08/10 13:37:23;;;;;;;0.80;0.80;;;;;;;;;;5060919;28;20706;-61
2022/08/10 13:40:16;;;;;;;0.95;0.95;;;;;;;;;;5043985;28;20696;-60
2022/08/10 13:43:06;;;;;;;0.70;0.70;;;;;;;;;;5056433;28;20215;-60
2022/08/10 13:45:55;;;;;;;0.57;0.57;;;;;;;;;;5052480;28;20258;-61
2022/08/10 13:48:42;;;;;;;0.77;0.77;;;;;;;;;;5062556;28;20201;-60
2022/08/10 13:51:31;;;;;;;0.75;0.70;;;;;;;;;;5045978;28;20216;-63
2022/08/10 13:54:20;;;;;;;0.70;0.70;;;;;;;;;;5061964;28;20199;-63
2022/08/10 13:57:10;;;;;;;1.48;0.90;;;;;;;;;;5043495;28;20245;-63
2022/08/10 13:59:58;;;;;;;0.98;0.98;;;;;;;;;;5059711;28;20263;-63
2022/08/10 14:02:49;;;;;;;0.85;0.85;;;;;;;;;;5048822;28;20212;-63
2022/08/10 14:05:38;;;;;;;0.80;0.80;;;;;;;;;;5064065;28;20711;-63
2022/08/10 14:08:29;;;;;;;0.70;0.70;;;;;;;;;;5047556;28;20369;-63
2022/08/10 14:11:19;;;;;;;1.83;0.60;;;;;;;;;;5059123;28;20208;-63
2022/08/10 14:14:09;;;;;;;0.70;0.70;;;;;;;;;;5038825;28;20223;-63
2022/08/10 14:16:58;;;;;;;0.65;0.65;;;;;;;;;;5062627;28;20235;-63
2022/08/10 14:19:49;;;;;;;0.80;0.80;;;;;;;;;;5044306;28;20201;-63
2022/08/10 14:22:37;;;;;;;0.93;0.93;;;;;;;;;;5062036;28;20741;-63
2022/08/10 14:25:24;;;;;;;0.85;0.70;;;;;;;;;;5057540;28;20203;-63
2022/08/10 14:28:13;;;;;;;0.70;0.70;;;;;;;;;;5060499;28;20292;-63
2022/08/10 14:31:05;;;;;;;0.90;0.90;;;;;;;;;;5053033;28;20294;-63
2022/08/10 14:33:59;;;;;;;0.60;0.60;;;;;;;;;;5056341;28;20208;-63
2022/08/10 14:36:52;;;;;;;0.60;0.60;;;;;;;;;;5047298;28;20619;-63
2022/08/10 14:39:44;;;;;;;0.52;0.52;;;;;;;;;;5048672;28;20660;-63
2022/08/10 14:42:36;;;;;;;0.77;0.77;;;;;;;;;;5060035;28;20556;-63
2022/08/10 14:45:27;;;;;;;0.80;0.80;;;;;;;;;;5044490;28;20204;-63
2022/08/10 14:48:21;;;;;;;0.80;0.80;;;;;;;;;;5064143;28;20214;-63
2022/08/10 14:51:11;;;;;;;0.50;0.50;;;;;;;;;;5051173;28;20204;-63
2022/08/10 14:54:02;;;;;;;0.80;0.80;;;;;;;;;;5060438;28;20204;-63
2022/08/10 14:56:50;;;;;;;1.08;0.70;;;;;;;;;;5043325;28;20204;-63
2022/08/10 14:59:39;;;;;;;0.80;0.80;;;;;;;;;;5059514;28;20232;-61
2022/08/10 15:02:27;;;;;;;0.70;0.70;;;;;;;;;;5055538;28;20703;-61
2022/08/10 15:05:17;;;;;;;0.63;0.63;;;;;;;;;;5060872;28;20250;-61
2022/08/10 15:08:05;;;;;;;0.70;0.70;;;;;;;;;;5039944;28;20207;-61
2022/08/10 15:10:56;;;;;;;0.88;0.88;;;;;;;;;;5059712;28;20278;-61
2022/08/10 15:13:45;;;;;;;0.77;0.77;;;;;;;;;;5053164;28;20216;-61
2022/08/10 15:16:33;;;;;;;0.80;0.80;;;;;;;;;;5060867;28;20200;-63
2022/08/10 15:19:26;;;;;;;0.60;0.60;;;;;;;;;;5047111;28;20220;-63
2022/08/10 15:22:16;;;;;;;0.50;0.50;;;;;;;;;;5060017;28;20235;-63
2022/08/10 15:25:06;;;;;;;0.73;0.73;;;;;;;;;;5042367;28;20266;-63
2022/08/10 15:27:56;;;;;;;0.70;0.70;;;;;;;;;;5052341;28;20228;-63
2022/08/10 15:30:47;;;;;;;0.60;0.60;;;;;;;;;;5047873;28;20217;-63
2022/08/10 15:40:03;;;;;;;0.80;0.80;;;;;;;;;;5048259;28;20232;-63
2022/08/10 15:42:54;;;;;;;0.60;0.60;;;;;;;;;;5060015;28;20203;-63
2022/08/10 15:45:42;;;;;;;0.70;0.70;;;;;;;;;;5040936;28;20677;-63
2022/08/10 15:48:33;;;;;;;0.50;0.50;;;;;;;;;;5055724;28;20282;-64
2022/08/10 15:51:24;;;;;;;0.80;0.80;;;;;;;;;;5042678;28;20207;-63
2022/08/10 15:54:13;;;;;;;0.60;0.60;;;;;;;;;;5056739;28;20261;-63
2022/08/10 15:57:06;;;;;;;0.60;0.60;;;;;;;;;;5049125;28;20214;-63
2022/08/10 15:59:59;;;;;;;0.60;0.60;;;;;;;;;;5052370;28;20219;-63
2022/08/10 16:02:52;;;;;;;0.70;0.70;;;;;;;;;;5033869;28;20208;-63
2022/08/10 16:05:45;;;;;;;0.70;0.70;;;;;;;;;;5043372;28;20228;-62
2022/08/10 16:08:43;;;;;;;0.70;0.70;;;;;;;;;;5047746;28;20230;-63
2022/08/10 16:11:38;;;;;;;0.70;0.70;;;;;;;;;;5042868;28;20208;-62
2022/08/10 16:14:32;;;;;;;0.68;0.68;;;;;;;;;;5042937;28;20228;-62
2022/08/10 16:17:22;;;;;;;0.80;0.80;;;;;;;;;;5046366;28;20576;-63
2022/08/10 16:20:10;;;;;;;0.60;0.60;;;;;;;;;;5046196;28;20663;-63
2022/08/10 16:22:59;;;;;;;0.65;0.65;;;;;;;;;;5044036;28;20444;-63
2022/08/10 16:25:50;;;;;;;0.70;0.70;;;;;;;;;;5042871;28;20784;-63
2022/08/10 16:28:41;;;;;;;0.85;0.85;;;;;;;;;;5034050;28;20232;-62
2022/08/10 16:31:33;;;;;;;0.60;0.60;;;;;;;;;;5045123;28;20212;-63
2022/08/10 16:34:21;;;;;;;0.70;0.70;;;;;;;;;;5043732;28;20267;-63
2022/08/10 16:37:11;;;;;;;0.70;0.70;;;;;;;;;;5057347;28;20213;-63
2022/08/10 16:40:00;;;;;;;0.60;0.60;;;;;;;;;;5038903;28;20254;-62
2022/08/10 16:42:49;;;;;;;0.60;0.60;;;;;;;;;;5055675;28;20211;-63
2022/08/10 16:45:40;;;;;;;0.68;0.68;;;;;;;;;;5047233;28;20897;-62
2022/08/10 16:48:34;;;;;;;0.50;0.50;;;;;;;;;;5054662;28;20208;-63
2022/08/10 16:51:23;;;;;;;0.52;0.52;;;;;;;;;;5040985;28;20668;-64
2022/08/10 16:54:10;;;;;;;0.50;0.50;;;;;;;;;;5051051;28;20866;-63
2022/08/10 16:57:00;;;;;;;0.70;0.70;;;;;;;;;;5047888;28;20208;-63
2022/08/10 16:59:49;;;;;;;0.57;0.57;;;;;;;;;;5052650;28;20409;-63
2022/08/10 17:02:38;;;;;;;0.52;0.52;;;;;;;;;;5039248;28;20570;-63
2022/08/10 17:05:28;;;;;;;0.63;0.63;;;;;;;;;;5058067;28;20301;-62
2022/08/10 17:08:20;;;;;;;0.60;0.60;;;;;;;;;;5051967;28;20706;-62
2022/08/10 17:11:07;;;;;;;0.57;0.57;;;;;;;;;;5057855;28;20242;-62
2022/08/10 17:13:56;;;;;;;0.80;0.80;;;;;;;;;;5045815;28;20199;-63
2022/08/10 17:16:45;;;;;;;0.50;0.50;;;;;;;;;;5047408;28;20199;-63
2022/08/10 17:19:39;;;;;;;0.80;0.80;;;;;;;;;;5051094;28;20230;-62
2022/08/10 17:22:29;;;;;;;0.77;0.63;;;;;;;;;;5053495;28;20626;-62